sensor_id;sensor_type;location;lat;lon;timestamp;P1;durP1;ratioP1;P2;durP2;ratioP2
37323;SDS011;23205;49.986;18.950;2022-10-12T00:00:36;212.88;;;94.35;;
37323;SDS011;23205;49.986;18.950;2022-10-12T00:05:36;202.80;;;92.47;;
37323;SDS011;23205;49.986;18.950;2022-10-12T00:10:41;187.95;;;89.30;;
37323;SDS011;23205;49.986;18.950;2022-10-12T00:15:42;246.65;;;95.78;;
37323;SDS011;23205;49.986;18.950;2022-10-12T00:20:43;302.85;;;99.57;;
37323;SDS011;23205;49.986;18.950;2022-10-12T00:25:44;273.65;;;101.55;;
37323;SDS011;23205;49.986;18.950;2022-10-12T00:30:44;360.77;;;109.63;;
37323;SDS011;23205;49.986;18.950;2022-10-12T00:35:45;292.27;;;104.60;;
37323;SDS011;23205;49.986;18.950;2022-10-12T00:40:48;299.02;;;105.60;;
37323;SDS011;23205;49.986;18.950;2022-10-12T00:45:49;325.00;;;106.38;;
37323;SDS011;23205;49.986;18.950;2022-10-12T00:50:49;249.63;;;102.65;;
37323;SDS011;23205;49.986;18.950;2022-10-12T00:55:52;243.77;;;93.20;;
37323;SDS011;23205;49.986;18.950;2022-10-12T01:01:01;226.63;;;94.40;;
37323;SDS011;23205;49.986;18.950;2022-10-12T01:06:04;203.57;;;88.78;;
37323;SDS011;23205;49.986;18.950;2022-10-12T01:11:06;166.32;;;75.90;;
37323;SDS011;23205;49.986;18.950;2022-10-12T01:21:47;168.88;;;62.17;;
37323;SDS011;23205;49.986;18.950;2022-10-12T01:27:00;259.85;;;65.13;;
37323;SDS011;23205;49.986;18.950;2022-10-12T01:32:25;146.25;;;56.47;;
37323;SDS011;23205;49.986;18.950;2022-10-12T01:43:08;137.98;;;54.72;;
37323;SDS011;23205;49.986;18.950;2022-10-12T01:48:09;142.88;;;52.55;;
37323;SDS011;23205;49.986;18.950;2022-10-12T01:53:44;206.10;;;60.42;;
37323;SDS011;23205;49.986;18.950;2022-10-12T02:09:26;132.40;;;51.70;;
37323;SDS011;23205;49.986;18.950;2022-10-12T02:14:39;149.93;;;56.88;;
37323;SDS011;23205;49.986;18.950;2022-10-12T02:19:49;124.32;;;52.28;;
37323;SDS011;23205;49.986;18.950;2022-10-12T02:24:56;118.65;;;51.10;;
37323;SDS011;23205;49.986;18.950;2022-10-12T02:29:57;136.25;;;54.33;;
37323;SDS011;23205;49.986;18.950;2022-10-12T02:40:49;117.55;;;53.22;;
37323;SDS011;23205;49.986;18.950;2022-10-12T02:45:29;106.75;;;51.35;;
37323;SDS011;23205;49.986;18.950;2022-10-12T02:50:32;109.75;;;50.80;;
37323;SDS011;23205;49.986;18.950;2022-10-12T02:55:36;108.65;;;49.55;;
37323;SDS011;23205;49.986;18.950;2022-10-12T03:00:45;127.55;;;56.90;;
37323;SDS011;23205;49.986;18.950;2022-10-12T03:05:46;150.48;;;60.63;;
37323;SDS011;23205;49.986;18.950;2022-10-12T03:10:46;126.93;;;54.80;;
37323;SDS011;23205;49.986;18.950;2022-10-12T03:15:47;132.52;;;59.03;;
37323;SDS011;23205;49.986;18.950;2022-10-12T03:20:48;120.70;;;52.95;;
37323;SDS011;23205;49.986;18.950;2022-10-12T03:25:48;118.28;;;53.40;;
37323;SDS011;23205;49.986;18.950;2022-10-12T03:30:49;132.73;;;54.22;;
37323;SDS011;23205;49.986;18.950;2022-10-12T03:35:51;120.72;;;52.15;;
37323;SDS011;23205;49.986;18.950;2022-10-12T03:40:52;124.85;;;48.50;;
37323;SDS011;23205;49.986;18.950;2022-10-12T03:45:53;100.10;;;47.20;;
37323;SDS011;23205;49.986;18.950;2022-10-12T03:50:53;146.43;;;51.45;;
37323;SDS011;23205;49.986;18.950;2022-10-12T03:55:54;106.38;;;51.80;;
37323;SDS011;23205;49.986;18.950;2022-10-12T04:00:55;111.65;;;53.17;;
37323;SDS011;23205;49.986;18.950;2022-10-12T04:05:56;154.27;;;52.75;;
37323;SDS011;23205;49.986;18.950;2022-10-12T04:10:57;142.35;;;56.90;;
37323;SDS011;23205;49.986;18.950;2022-10-12T04:16:02;157.73;;;63.67;;
37323;SDS011;23205;49.986;18.950;2022-10-12T04:21:05;142.88;;;59.47;;
37323;SDS011;23205;49.986;18.950;2022-10-12T04:26:10;127.78;;;48.60;;
37323;SDS011;23205;49.986;18.950;2022-10-12T04:31:10;112.15;;;43.40;;
37323;SDS011;23205;49.986;18.950;2022-10-12T04:36:11;107.05;;;47.08;;
37323;SDS011;23205;49.986;18.950;2022-10-12T04:41:12;132.18;;;57.25;;
37323;SDS011;23205;49.986;18.950;2022-10-12T04:46:13;130.13;;;58.85;;
37323;SDS011;23205;49.986;18.950;2022-10-12T04:51:13;105.95;;;45.40;;
37323;SDS011;23205;49.986;18.950;2022-10-12T04:56:14;102.10;;;45.33;;
37323;SDS011;23205;49.986;18.950;2022-10-12T05:01:15;125.43;;;46.47;;
37323;SDS011;23205;49.986;18.950;2022-10-12T05:06:17;114.18;;;41.92;;
37323;SDS011;23205;49.986;18.950;2022-10-12T05:11:18;121.65;;;39.75;;
37323;SDS011;23205;49.986;18.950;2022-10-12T05:16:18;101.35;;;44.03;;
37323;SDS011;23205;49.986;18.950;2022-10-12T05:21:19;102.93;;;44.55;;
37323;SDS011;23205;49.986;18.950;2022-10-12T05:26:20;117.35;;;38.97;;
37323;SDS011;23205;49.986;18.950;2022-10-12T05:31:20;111.55;;;39.60;;
37323;SDS011;23205;49.986;18.950;2022-10-12T05:36:21;142.05;;;47.08;;
37323;SDS011;23205;49.986;18.950;2022-10-12T05:41:22;144.13;;;48.45;;
37323;SDS011;23205;49.986;18.950;2022-10-12T05:46:23;115.15;;;40.35;;
37323;SDS011;23205;49.986;18.950;2022-10-12T05:51:23;114.05;;;38.17;;
37323;SDS011;23205;49.986;18.950;2022-10-12T05:56:24;149.70;;;39.25;;
37323;SDS011;23205;49.986;18.950;2022-10-12T06:01:25;92.97;;;33.45;;
37323;SDS011;23205;49.986;18.950;2022-10-12T06:06:26;101.88;;;34.10;;
37323;SDS011;23205;49.986;18.950;2022-10-12T06:11:27;89.35;;;33.90;;
37323;SDS011;23205;49.986;18.950;2022-10-12T06:16:28;109.07;;;36.20;;
37323;SDS011;23205;49.986;18.950;2022-10-12T06:21:29;96.75;;;34.85;;
37323;SDS011;23205;49.986;18.950;2022-10-12T06:26:30;82.15;;;33.80;;
37323;SDS011;23205;49.986;18.950;2022-10-12T06:31:30;146.85;;;36.90;;
37323;SDS011;23205;49.986;18.950;2022-10-12T06:36:33;103.78;;;36.10;;
37323;SDS011;23205;49.986;18.950;2022-10-12T06:41:33;100.45;;;37.35;;
37323;SDS011;23205;49.986;18.950;2022-10-12T06:46:38;88.60;;;37.55;;
37323;SDS011;23205;49.986;18.950;2022-10-12T06:51:40;125.57;;;39.90;;
37323;SDS011;23205;49.986;18.950;2022-10-12T06:56:41;114.28;;;42.72;;
37323;SDS011;23205;49.986;18.950;2022-10-12T07:01:42;146.52;;;53.78;;
37323;SDS011;23205;49.986;18.950;2022-10-12T07:06:43;109.43;;;50.58;;
37323;SDS011;23205;49.986;18.950;2022-10-12T07:11:43;125.30;;;47.65;;
37323;SDS011;23205;49.986;18.950;2022-10-12T07:16:47;102.70;;;44.60;;
37323;SDS011;23205;49.986;18.950;2022-10-12T07:21:48;96.45;;;40.55;;
37323;SDS011;23205;49.986;18.950;2022-10-12T07:26:49;129.15;;;38.33;;
37323;SDS011;23205;49.986;18.950;2022-10-12T07:31:50;99.50;;;37.90;;
37323;SDS011;23205;49.986;18.950;2022-10-12T07:36:51;93.97;;;38.42;;
37323;SDS011;23205;49.986;18.950;2022-10-12T07:41:52;70.80;;;32.30;;
37323;SDS011;23205;49.986;18.950;2022-10-12T07:46:53;85.88;;;37.17;;
37323;SDS011;23205;49.986;18.950;2022-10-12T07:51:54;77.15;;;35.78;;
37323;SDS011;23205;49.986;18.950;2022-10-12T07:56:54;67.47;;;32.67;;
37323;SDS011;23205;49.986;18.950;2022-10-12T08:01:55;82.20;;;37.40;;
37323;SDS011;23205;49.986;18.950;2022-10-12T08:06:56;76.20;;;36.58;;
37323;SDS011;23205;49.986;18.950;2022-10-12T08:11:58;98.45;;;42.67;;
37323;SDS011;23205;49.986;18.950;2022-10-12T08:16:59;88.72;;;40.63;;
37323;SDS011;23205;49.986;18.950;2022-10-12T08:21:59;72.15;;;35.90;;
37323;SDS011;23205;49.986;18.950;2022-10-12T08:27:00;72.57;;;34.75;;
37323;SDS011;23205;49.986;18.950;2022-10-12T08:32:01;73.82;;;33.63;;
37323;SDS011;23205;49.986;18.950;2022-10-12T08:37:02;79.03;;;36.70;;
37323;SDS011;23205;49.986;18.950;2022-10-12T08:42:11;59.42;;;29.13;;
37323;SDS011;23205;49.986;18.950;2022-10-12T08:47:47;58.67;;;29.10;;
37323;SDS011;23205;49.986;18.950;2022-10-12T08:52:55;55.05;;;26.23;;
37323;SDS011;23205;49.986;18.950;2022-10-12T08:58:01;54.37;;;25.17;;
37323;SDS011;23205;49.986;18.950;2022-10-12T09:03:12;49.67;;;25.08;;
37323;SDS011;23205;49.986;18.950;2022-10-12T09:13:54;33.78;;;18.98;;
37323;SDS011;23205;49.986;18.950;2022-10-12T09:19:08;29.67;;;17.13;;
37323;SDS011;23205;49.986;18.950;2022-10-12T09:24:17;29.85;;;16.67;;
37323;SDS011;23205;49.986;18.950;2022-10-12T09:29:27;26.35;;;14.13;;
37323;SDS011;23205;49.986;18.950;2022-10-12T09:34:31;27.92;;;13.18;;
37323;SDS011;23205;49.986;18.950;2022-10-12T09:39:35;22.70;;;12.35;;
37323;SDS011;23205;49.986;18.950;2022-10-12T09:50:16;26.35;;;12.40;;
37323;SDS011;23205;49.986;18.950;2022-10-12T09:55:38;19.88;;;11.52;;
37323;SDS011;23205;49.986;18.950;2022-10-12T10:00:40;17.75;;;11.05;;
37323;SDS011;23205;49.986;18.950;2022-10-12T10:05:40;20.63;;;9.80;;
37323;SDS011;23205;49.986;18.950;2022-10-12T10:10:51;21.65;;;8.80;;
37323;SDS011;23205;49.986;18.950;2022-10-12T10:32:26;13.77;;;4.97;;
37323;SDS011;23205;49.986;18.950;2022-10-12T10:37:28;9.98;;;3.88;;
37323;SDS011;23205;49.986;18.950;2022-10-12T10:42:30;8.52;;;3.20;;
37323;SDS011;23205;49.986;18.950;2022-10-12T10:47:32;7.35;;;2.75;;
37323;SDS011;23205;49.986;18.950;2022-10-12T10:52:41;8.25;;;2.42;;
37323;SDS011;23205;49.986;18.950;2022-10-12T10:57:47;11.32;;;3.13;;
37323;SDS011;23205;49.986;18.950;2022-10-12T11:02:56;12.30;;;3.33;;
37323;SDS011;23205;49.986;18.950;2022-10-12T11:08:11;9.48;;;2.70;;
37323;SDS011;23205;49.986;18.950;2022-10-12T11:18:33;8.43;;;3.13;;
37323;SDS011;23205;49.986;18.950;2022-10-12T11:28:58;5.95;;;2.20;;
37323;SDS011;23205;49.986;18.950;2022-10-12T11:33:59;5.68;;;1.80;;
37323;SDS011;23205;49.986;18.950;2022-10-12T11:39:05;5.07;;;1.75;;
37323;SDS011;23205;49.986;18.950;2022-10-12T11:44:21;7.75;;;1.80;;
37323;SDS011;23205;49.986;18.950;2022-10-12T11:49:30;8.00;;;2.10;;
37323;SDS011;23205;49.986;18.950;2022-10-12T12:00:22;6.33;;;1.97;;
37323;SDS011;23205;49.986;18.950;2022-10-12T12:05:47;122.25;;;85.18;;
37323;SDS011;23205;49.986;18.950;2022-10-12T12:10:52;7.30;;;2.92;;
37323;SDS011;23205;49.986;18.950;2022-10-12T12:21:11;5.55;;;1.33;;
37323;SDS011;23205;49.986;18.950;2022-10-12T12:26:16;5.32;;;1.50;;
37323;SDS011;23205;49.986;18.950;2022-10-12T12:36:55;6.03;;;1.23;;
37323;SDS011;23205;49.986;18.950;2022-10-12T12:41:54;10.30;;;5.38;;
37323;SDS011;23205;49.986;18.950;2022-10-12T12:52:00;5.18;;;1.67;;
37323;SDS011;23205;49.986;18.950;2022-10-12T13:13:35;22.58;;;13.93;;
37323;SDS011;23205;49.986;18.950;2022-10-12T13:34:46;8.55;;;3.42;;
37323;SDS011;23205;49.986;18.950;2022-10-12T13:39:49;5.93;;;2.45;;
37323;SDS011;23205;49.986;18.950;2022-10-12T13:44:53;4.95;;;1.63;;
37323;SDS011;23205;49.986;18.950;2022-10-12T13:49:54;15.38;;;9.25;;
37323;SDS011;23205;49.986;18.950;2022-10-12T13:54:55;7.78;;;3.63;;
37323;SDS011;23205;49.986;18.950;2022-10-12T13:59:57;19.45;;;10.65;;
37323;SDS011;23205;49.986;18.950;2022-10-12T14:05:19;41.22;;;20.00;;
37323;SDS011;23205;49.986;18.950;2022-10-12T14:15:33;15.93;;;8.10;;
37323;SDS011;23205;49.986;18.950;2022-10-12T14:20:36;25.58;;;12.27;;
37323;SDS011;23205;49.986;18.950;2022-10-12T14:25:38;29.50;;;15.75;;
37323;SDS011;23205;49.986;18.950;2022-10-12T14:30:53;18.05;;;9.35;;
37323;SDS011;23205;49.986;18.950;2022-10-12T14:36:11;14.13;;;4.75;;
37323;SDS011;23205;49.986;18.950;2022-10-12T14:51:51;39.72;;;20.88;;
37323;SDS011;23205;49.986;18.950;2022-10-12T14:56:53;35.97;;;20.08;;
37323;SDS011;23205;49.986;18.950;2022-10-12T15:01:54;9.68;;;3.88;;
37323;SDS011;23205;49.986;18.950;2022-10-12T15:06:54;78.75;;;36.05;;
37323;SDS011;23205;49.986;18.950;2022-10-12T15:11:55;13.70;;;4.72;;
37323;SDS011;23205;49.986;18.950;2022-10-12T15:16:56;21.92;;;6.35;;
37323;SDS011;23205;49.986;18.950;2022-10-12T15:21:57;23.58;;;6.40;;
37323;SDS011;23205;49.986;18.950;2022-10-12T15:26:57;31.13;;;9.20;;
37323;SDS011;23205;49.986;18.950;2022-10-12T15:31:58;39.38;;;12.07;;
37323;SDS011;23205;49.986;18.950;2022-10-12T15:36:59;19.15;;;6.70;;
37323;SDS011;23205;49.986;18.950;2022-10-12T15:41:59;17.85;;;6.85;;
37323;SDS011;23205;49.986;18.950;2022-10-12T15:47:00;19.98;;;6.95;;
37323;SDS011;23205;49.986;18.950;2022-10-12T15:52:01;16.50;;;6.03;;
37323;SDS011;23205;49.986;18.950;2022-10-12T15:57:02;13.43;;;5.53;;
37323;SDS011;23205;49.986;18.950;2022-10-12T16:02:02;16.63;;;5.45;;
37323;SDS011;23205;49.986;18.950;2022-10-12T16:07:03;14.70;;;5.55;;
37323;SDS011;23205;49.986;18.950;2022-10-12T16:12:04;21.10;;;6.82;;
37323;SDS011;23205;49.986;18.950;2022-10-12T16:17:04;18.70;;;8.30;;
37323;SDS011;23205;49.986;18.950;2022-10-12T16:22:05;23.70;;;10.48;;
37323;SDS011;23205;49.986;18.950;2022-10-12T16:27:06;31.25;;;13.15;;
37323;SDS011;23205;49.986;18.950;2022-10-12T16:32:06;100.55;;;47.55;;
37323;SDS011;23205;49.986;18.950;2022-10-12T16:37:07;86.32;;;42.42;;
37323;SDS011;23205;49.986;18.950;2022-10-12T16:42:08;95.90;;;43.78;;
37323;SDS011;23205;49.986;18.950;2022-10-12T16:47:09;100.15;;;49.25;;
37323;SDS011;23205;49.986;18.950;2022-10-12T16:52:10;110.35;;;50.58;;
37323;SDS011;23205;49.986;18.950;2022-10-12T16:57:11;108.53;;;47.15;;
37323;SDS011;23205;49.986;18.950;2022-10-12T17:02:12;134.80;;;61.92;;
37323;SDS011;23205;49.986;18.950;2022-10-12T17:07:14;134.85;;;59.30;;
37323;SDS011;23205;49.986;18.950;2022-10-12T17:12:15;92.85;;;42.67;;
37323;SDS011;23205;49.986;18.950;2022-10-12T17:17:16;119.95;;;51.17;;
37323;SDS011;23205;49.986;18.950;2022-10-12T17:22:18;89.35;;;38.38;;
37323;SDS011;23205;49.986;18.950;2022-10-12T17:27:19;119.20;;;52.25;;
37323;SDS011;23205;49.986;18.950;2022-10-12T17:32:20;105.88;;;47.22;;
37323;SDS011;23205;49.986;18.950;2022-10-12T17:37:20;126.03;;;54.58;;
37323;SDS011;23205;49.986;18.950;2022-10-12T17:42:21;144.63;;;67.80;;
37323;SDS011;23205;49.986;18.950;2022-10-12T17:47:22;193.10;;;88.30;;
37323;SDS011;23205;49.986;18.950;2022-10-12T17:52:22;174.73;;;90.93;;
37323;SDS011;23205;49.986;18.950;2022-10-12T17:57:23;168.95;;;86.85;;
37323;SDS011;23205;49.986;18.950;2022-10-12T18:02:24;171.75;;;84.32;;
37323;SDS011;23205;49.986;18.950;2022-10-12T18:07:24;138.93;;;61.10;;
37323;SDS011;23205;49.986;18.950;2022-10-12T18:12:25;128.30;;;59.17;;
37323;SDS011;23205;49.986;18.950;2022-10-12T18:17:26;141.10;;;64.05;;
37323;SDS011;23205;49.986;18.950;2022-10-12T18:22:27;178.90;;;80.25;;
37323;SDS011;23205;49.986;18.950;2022-10-12T18:27:28;184.57;;;84.55;;
37323;SDS011;23205;49.986;18.950;2022-10-12T18:32:29;165.85;;;78.45;;
37323;SDS011;23205;49.986;18.950;2022-10-12T18:37:30;147.45;;;65.93;;
37323;SDS011;23205;49.986;18.950;2022-10-12T18:42:31;144.65;;;65.05;;
37323;SDS011;23205;49.986;18.950;2022-10-12T18:47:33;149.73;;;68.75;;
37323;SDS011;23205;49.986;18.950;2022-10-12T18:52:35;178.70;;;79.93;;
37323;SDS011;23205;49.986;18.950;2022-10-12T18:57:35;198.18;;;89.35;;
37323;SDS011;23205;49.986;18.950;2022-10-12T19:02:37;192.32;;;88.65;;
37323;SDS011;23205;49.986;18.950;2022-10-12T19:07:37;154.48;;;72.88;;
37323;SDS011;23205;49.986;18.950;2022-10-12T19:12:38;166.27;;;80.38;;
37323;SDS011;23205;49.986;18.950;2022-10-12T19:17:39;199.63;;;93.22;;
37323;SDS011;23205;49.986;18.950;2022-10-12T19:22:39;367.23;;;167.07;;
37323;SDS011;23205;49.986;18.950;2022-10-12T19:27:40;372.38;;;175.80;;
37323;SDS011;23205;49.986;18.950;2022-10-12T19:32:41;300.67;;;139.52;;
37323;SDS011;23205;49.986;18.950;2022-10-12T19:37:42;232.23;;;101.70;;
37323;SDS011;23205;49.986;18.950;2022-10-12T19:42:42;190.13;;;82.85;;
37323;SDS011;23205;49.986;18.950;2022-10-12T19:47:43;166.80;;;77.10;;
37323;SDS011;23205;49.986;18.950;2022-10-12T19:52:44;168.48;;;75.55;;
37323;SDS011;23205;49.986;18.950;2022-10-12T19:57:45;498.52;;;207.57;;
37323;SDS011;23205;49.986;18.950;2022-10-12T20:02:47;277.27;;;107.47;;
37323;SDS011;23205;49.986;18.950;2022-10-12T20:07:48;265.15;;;111.82;;
37323;SDS011;23205;49.986;18.950;2022-10-12T20:12:49;176.80;;;70.20;;
37323;SDS011;23205;49.986;18.950;2022-10-12T20:17:50;184.15;;;65.55;;
37323;SDS011;23205;49.986;18.950;2022-10-12T20:22:50;221.75;;;81.13;;
37323;SDS011;23205;49.986;18.950;2022-10-12T20:27:51;203.52;;;78.72;;
37323;SDS011;23205;49.986;18.950;2022-10-12T20:32:52;189.13;;;79.63;;
37323;SDS011;23205;49.986;18.950;2022-10-12T20:37:52;245.80;;;92.15;;
37323;SDS011;23205;49.986;18.950;2022-10-12T20:42:54;211.45;;;85.78;;
37323;SDS011;23205;49.986;18.950;2022-10-12T20:47:55;213.13;;;85.28;;
37323;SDS011;23205;49.986;18.950;2022-10-12T20:52:56;207.35;;;79.57;;
37323;SDS011;23205;49.986;18.950;2022-10-12T20:57:56;192.07;;;78.72;;
37323;SDS011;23205;49.986;18.950;2022-10-12T21:02:57;210.90;;;84.93;;
37323;SDS011;23205;49.986;18.950;2022-10-12T21:07:58;206.52;;;81.55;;
37323;SDS011;23205;49.986;18.950;2022-10-12T21:12:58;182.00;;;74.10;;
37323;SDS011;23205;49.986;18.950;2022-10-12T21:17:59;154.60;;;64.90;;
37323;SDS011;23205;49.986;18.950;2022-10-12T21:23:00;146.52;;;61.42;;
37323;SDS011;23205;49.986;18.950;2022-10-12T21:28:00;151.20;;;64.68;;
37323;SDS011;23205;49.986;18.950;2022-10-12T21:33:01;152.82;;;65.13;;
37323;SDS011;23205;49.986;18.950;2022-10-12T21:38:02;153.20;;;69.95;;
37323;SDS011;23205;49.986;18.950;2022-10-12T21:43:03;134.13;;;59.40;;
37323;SDS011;23205;49.986;18.950;2022-10-12T21:48:04;104.13;;;48.28;;
37323;SDS011;23205;49.986;18.950;2022-10-12T21:53:05;103.60;;;47.15;;
37323;SDS011;23205;49.986;18.950;2022-10-12T21:58:05;86.18;;;42.05;;
37323;SDS011;23205;49.986;18.950;2022-10-12T22:03:06;93.57;;;45.63;;
37323;SDS011;23205;49.986;18.950;2022-10-12T22:08:07;96.13;;;46.58;;
37323;SDS011;23205;49.986;18.950;2022-10-12T22:13:08;104.68;;;49.00;;
37323;SDS011;23205;49.986;18.950;2022-10-12T22:18:09;113.03;;;48.92;;
37323;SDS011;23205;49.986;18.950;2022-10-12T22:23:10;122.57;;;49.47;;
37323;SDS011;23205;49.986;18.950;2022-10-12T22:28:10;106.93;;;47.03;;
37323;SDS011;23205;49.986;18.950;2022-10-12T22:33:15;104.35;;;45.80;;
37323;SDS011;23205;49.986;18.950;2022-10-12T22:38:15;97.45;;;44.33;;
37323;SDS011;23205;49.986;18.950;2022-10-12T22:43:16;90.28;;;42.60;;
37323;SDS011;23205;49.986;18.950;2022-10-12T22:48:17;90.20;;;41.45;;
37323;SDS011;23205;49.986;18.950;2022-10-12T22:53:19;97.03;;;43.75;;
37323;SDS011;23205;49.986;18.950;2022-10-12T22:58:20;100.47;;;45.40;;
37323;SDS011;23205;49.986;18.950;2022-10-12T23:03:21;102.32;;;44.78;;
37323;SDS011;23205;49.986;18.950;2022-10-12T23:08:22;92.20;;;41.92;;
37323;SDS011;23205;49.986;18.950;2022-10-12T23:13:23;100.82;;;42.75;;
37323;SDS011;23205;49.986;18.950;2022-10-12T23:18:23;89.93;;;41.17;;
37323;SDS011;23205;49.986;18.950;2022-10-12T23:23:24;87.60;;;41.95;;
37323;SDS011;23205;49.986;18.950;2022-10-12T23:28:25;105.32;;;47.33;;
37323;SDS011;23205;49.986;18.950;2022-10-12T23:33:27;92.93;;;45.97;;
37323;SDS011;23205;49.986;18.950;2022-10-12T23:38:28;95.35;;;46.72;;
37323;SDS011;23205;49.986;18.950;2022-10-12T23:43:30;90.18;;;43.83;;
37323;SDS011;23205;49.986;18.950;2022-10-12T23:48:34;97.50;;;42.92;;
37323;SDS011;23205;49.986;18.950;2022-10-12T23:53:35;107.07;;;45.97;;
37323;SDS011;23205;49.986;18.950;2022-10-12T23:58:36;98.28;;;44.55;;
